Bowman, SC (29018)

8:44 AM EDT on May 22, 2015 (GMT -0400)
Reevesville | | Change Station
CLOSE
Current Station
Personal Weather Station
Location: Reevesville, SC
Elevation: 105 ft
Nearby Weather Stations

Elev 105 ft 33.22 °N, 80.64 °W | Updated 1 second ago

Overcast
Overcast
68.2 °F
Feels Like 68.2 °F
N
6.5
Wind Variable Wind from NNE
Gusts 7.4 mph

Today
High -- | Low -- °F
--% Chance of Precip.
Yesterday
High -- | Low -- °F
Precip. -- in
6:18 AM 8:20 PM
Waxing Crescent, 21% visible
Pressure 30.11 in
Visibility 10.0 miles
Clouds Overcast 4300 ft
Dew Point 56 °F
Humidity 66%
Rainfall 0.00 in
Snow Depth Not available.
UV 2.0 out of 12
Pollen 7.10 out of 12
Air Quality Not available.
Flu Activity Local Activity
METAR KOGB 221153Z AUTO 06012G16KT 10SM OVC043 19/11 A3011 RMK AO2 SLP195 T01940111 10217 20194 52036

More Conditions Fewer Conditions

Pressure 30.11 in
Visibility 10.0 miles
Clouds Overcast 4300 ft
Dew Point 56 °F
Humidity 66%
Rainfall 0.00 in
Snow Depth Not available.
UV 2.0 out of 12
Pollen 7.10 out of 12
Air Quality Not available.
Flu Activity Local Activity
METAR KOGB 221153Z AUTO 06012G16KT 10SM OVC043 19/11 A3011 RMK AO2 SLP195 T01940111 10217 20194 52036

More Conditions Fewer Conditions

10-Day Weather Forecast

Almanac

Astronomy

May. 22, 2015 Rise Set
Actual Time
Civil Twilight
Nautical Twilight
Astronomical Twilight
Moon
Length of Visible Light
Length of Day
Tomorrow will be .
, % of the Moon is Illuminated

Today's Extremes

State Highs State Lows

Community

WunderPhotos

Upload Photos

1,823,209 photos uploaded!

WunderBlogs® & News

Nearby

Air Quality

  Air Quality AQ Index Pollutant
Not available.

Snow Depth

Station Depth Elevation

Earthquake Activity

City Distance Mag. Time & Date
Minimum magnitude displayed is 2.5.

Coastal Water Temperatures

Place Temperature

Stations

Nearby Weather Stations

Station Location Temp. Windchill Dew Point Humidity Wind Precip. Elev Updated Type